Ana Sayfa
METAR-TAF:

METAR-TAF

Havaalanları :

Yap, Mikronezya

Enlem: 09-29N, Boylam: 138-05E, yükseklik: 28 m

Güncel hava durumu gözlemi

Rapor saat 15:50 UTC de 57 dakika önce yapıldı.
Rüzgar değişken yönden 3 kt
Sıcaklık 28°C
Nem 89%
Basınç 1011 hPa
Görüş mesafesi: 19.3 km
1600 ft yükseklikte az bulutlu
13000 ft yükseklikte parçalı bulutlu
30000 ft yükseklikte parçalı çok bulutlu

METAR: PTYA 211550Z VRB03KT 12SM FEW016 SCT130 BKN300 28/26 A2985 RMK SLP108 T02750256

Saat: 02:47 (16:47 UTC)

Tahmin

Rapor saat 11:27 UTC de 5 saat ve 20 dakika önce yapıldı.
Ayın 21'si saat 12 UTC'den ayın 22'si saat 12 UTC'ye kadar geçerli Tahmin
Rüzgar değişken yönden 5 kt
Görüş mesafesi: 10 km
1600 ft yükseklikte az bulutlu
13000 ft yükseklikte parçalı bulutlu

TAF: PTYA 211127Z 2112/2212 VRB05KT P6SM FEW016 SCT130

4.000'den fazla havaalanı için hava durumu gözlemleri ve tahminleri (METAR ve TAF raporları).

Kullanılabilir istasyonlar harita üzerinde sarı ve kırmızı noktalarla gösterilir.

İstasyonun adını görmek için fareyi noktanın üzerinde gezdirin.

Sonrasında hava gözlem ve tahminlerini görmek için tıklayın.

Haritayı değiştirmek için: yaklaştırmak için siyah artı işaretli yeşil düğmeye ve uzaklaştırmak için de eksi işaretli düğmeye hızla tıklayın; bitişik haritalar için yeşil okları kullanın.


METAR-TAF: